createdAt,value
2022-08-03T00:03:33.984Z,99203.34
2022-08-03T00:06:04.841Z,99206.78
2022-08-03T00:08:32.204Z,99205.31
2022-08-03T00:11:04.719Z,99213.25
2022-08-03T00:13:31.769Z,99212.47
2022-08-03T00:15:58.908Z,99201.06
2022-08-03T00:18:25.920Z,99197.38
2022-08-03T00:20:52.857Z,99205.28
2022-08-03T00:23:19.749Z,99201.03
2022-08-03T00:25:46.712Z,99211.59
2022-08-03T00:28:13.594Z,99201.94
2022-08-03T00:30:42.350Z,99200.16
2022-08-03T00:33:11.826Z,99206.41
2022-08-03T00:35:50.601Z,99206.47
2022-08-03T00:38:18.956Z,99213.69
2022-08-03T00:40:46.609Z,99202.44
2022-08-03T00:43:13.866Z,99212.13
2022-08-03T00:45:43.757Z,99211.44
2022-08-03T00:48:29.684Z,99204.31
2022-08-03T00:51:00.234Z,99209.03
2022-08-03T00:53:27.959Z,99211.00
2022-08-03T00:55:55.229Z,99211.72
2022-08-03T00:58:22.638Z,99209.22
2022-08-03T01:00:49.942Z,99205.78
2022-08-03T01:03:17.314Z,99211.00
2022-08-03T01:06:00.815Z,99213.81
2022-08-03T01:08:46.883Z,99211.34
2022-08-03T01:12:00.534Z,99185.78
2022-08-03T01:14:39.353Z,99213.44
2022-08-03T01:17:22.414Z,99213.41
2022-08-03T01:20:10.783Z,99214.31
2022-08-03T01:22:58.915Z,99215.25
2022-08-03T01:25:54.488Z,99213.53
2022-08-03T01:28:50.809Z,99209.31
2022-08-03T01:31:24.127Z,99212.47
2022-08-03T01:33:57.652Z,99214.28
2022-08-03T01:36:30.013Z,99205.59
2022-08-03T01:39:02.875Z,99207.41
2022-08-03T01:41:35.086Z,99202.25
2022-08-03T01:44:30.209Z,99205.50
2022-08-03T01:46:54.747Z,99199.44
2022-08-03T01:49:22.391Z,99200.44
2022-08-03T01:52:03.197Z,99198.72
2022-08-03T01:54:36.489Z,99193.69
2022-08-03T01:57:04.948Z,99196.50
2022-08-03T01:59:35.857Z,99196.81
2022-08-03T02:02:28.327Z,99192.41
2022-08-03T02:04:55.977Z,99194.25
2022-08-03T02:07:24.230Z,99197.75
2022-08-03T02:09:52.948Z,99193.50
2022-08-03T02:12:22.639Z,99194.09
2022-08-03T02:14:52.010Z,99192.38
2022-08-03T02:17:39.319Z,99196.72
2022-08-03T02:20:09.196Z,99199.34
2022-08-03T02:22:39.502Z,99178.44
2022-08-03T02:25:08.817Z,99189.19
2022-08-03T02:27:43.203Z,99189.38
2022-08-03T02:30:12.916Z,99182.59
2022-08-03T02:32:44.403Z,99183.50
2022-08-03T02:35:15.403Z,99184.25
2022-08-03T02:37:49.707Z,99172.03
2022-08-03T02:40:19.472Z,99179.94
2022-08-03T02:42:50.176Z,99180.59
2022-08-03T02:45:20.075Z,99174.50
2022-08-03T02:47:54.495Z,99184.81
2022-08-03T02:50:24.206Z,99192.50
2022-08-03T02:52:53.444Z,99185.41
2022-08-03T02:55:22.781Z,99188.97
2022-08-03T02:57:51.257Z,99184.59
2022-08-03T03:00:27.484Z,99180.13
2022-08-03T03:03:02.073Z,99182.06
2022-08-03T03:05:55.790Z,99183.91
2022-08-03T03:08:26.741Z,99183.97
2022-08-03T03:11:01.824Z,99186.88
2022-08-03T03:13:30.593Z,99189.03
2022-08-03T03:16:04.151Z,99184.44
2022-08-03T03:18:35.253Z,99179.47
2022-08-03T03:21:04.194Z,99201.06
2022-08-03T03:23:35.764Z,99201.59
2022-08-03T03:26:03.303Z,99205.75
2022-08-03T03:28:31.995Z,99205.81
2022-08-03T03:30:59.742Z,99210.91
2022-08-03T03:33:28.533Z,99205.84
2022-08-03T03:36:08.202Z,99216.38
2022-08-03T03:38:35.592Z,99209.34
2022-08-03T03:41:02.914Z,99219.59
2022-08-03T03:43:30.169Z,99221.13
2022-08-03T03:45:58.462Z,99228.16
2022-08-03T03:48:26.515Z,99225.34
2022-08-03T03:50:53.663Z,99225.31
2022-08-03T03:53:20.729Z,99232.22
2022-08-03T03:55:59.305Z,99223.22
2022-08-03T03:58:30.973Z,99231.69
2022-08-03T04:00:58.173Z,99240.72
2022-08-03T04:03:25.292Z,99234.44
2022-08-03T04:06:10.864Z,99241.97
2022-08-03T04:08:56.454Z,99245.16
2022-08-03T04:11:29.078Z,99242.81
2022-08-03T04:14:02.330Z,99252.06
2022-08-03T04:16:34.014Z,99238.78
2022-08-03T04:19:14.206Z,99253.00
2022-08-03T04:21:43.694Z,99256.59
2022-08-03T04:24:12.918Z,99255.28
2022-08-03T04:26:43.512Z,99262.31
2022-08-03T04:29:12.144Z,99254.88
2022-08-03T04:31:42.225Z,99257.09
2022-08-03T04:34:09.543Z,99271.63
2022-08-03T04:36:40.533Z,99268.84
2022-08-03T04:39:14.362Z,99265.72
2022-08-03T04:42:08.364Z,99272.97
2022-08-03T04:44:38.147Z,99269.00
2022-08-03T04:47:05.283Z,99278.78
2022-08-03T04:49:32.921Z,99280.81
2022-08-03T04:52:00.235Z,99294.16
2022-08-03T04:54:27.225Z,99288.94
2022-08-03T04:56:54.205Z,99285.56
2022-08-03T04:59:21.186Z,99292.19
2022-08-03T05:01:48.203Z,99288.28
2022-08-03T05:04:15.454Z,99298.41
2022-08-03T05:06:48.165Z,99300.22
2022-08-03T05:09:49.915Z,99297.28
2022-08-03T05:12:11.346Z,99308.31
2022-08-03T05:14:39.067Z,99318.41
2022-08-03T05:17:06.594Z,99306.91
2022-08-03T05:19:33.521Z,99308.50
2022-08-03T05:22:00.786Z,99311.44
2022-08-03T05:24:27.889Z,99311.41
2022-08-03T05:26:54.887Z,99306.84
2022-08-03T05:29:22.250Z,99302.66
2022-08-03T05:31:49.345Z,99309.53
2022-08-03T05:34:16.597Z,99315.72
2022-08-03T05:36:43.554Z,99317.88
2022-08-03T05:39:10.565Z,99314.22
2022-08-03T05:41:37.692Z,99316.00
2022-08-03T05:44:05.226Z,99319.88
2022-08-03T05:46:32.616Z,99315.75
2022-08-03T05:48:59.679Z,99312.72
2022-08-03T05:51:26.769Z,99320.50
2022-08-03T05:53:53.787Z,99321.66
2022-08-03T05:56:27.717Z,99320.34
2022-08-03T05:58:54.877Z,99324.66
2022-08-03T06:01:22.636Z,99325.91
2022-08-03T06:03:52.215Z,99331.50
2022-08-03T06:06:19.335Z,99337.03
2022-08-03T06:08:46.551Z,99336.19
2022-08-03T06:11:13.856Z,99339.03
2022-08-03T06:13:40.979Z,99329.09
2022-08-03T06:16:08.135Z,99335.81
2022-08-03T06:18:36.155Z,99338.50
2022-08-03T06:21:14.477Z,99344.38
2022-08-03T06:23:54.642Z,99334.59
2022-08-03T06:26:23.726Z,99341.13
2022-08-03T06:28:52.792Z,99346.53
2022-08-03T06:31:21.107Z,99341.91
2022-08-03T06:34:30.808Z,99343.09
2022-08-03T06:36:38.137Z,99342.56
2022-08-03T06:39:05.766Z,99344.13
2022-08-03T06:41:38.004Z,99345.44
2022-08-03T06:44:11.446Z,99343.72
2022-08-03T06:46:38.486Z,99339.34
2022-08-03T06:49:05.538Z,99338.97
2022-08-03T06:52:03.490Z,99353.78
2022-08-03T06:54:19.718Z,99345.50
2022-08-03T06:56:46.676Z,99346.50
2022-08-03T07:00:06.346Z,99356.41
2022-08-03T07:02:00.657Z,99349.75
2022-08-03T07:04:27.567Z,99349.16
2022-08-03T07:06:55.434Z,99357.88
2022-08-03T07:09:22.685Z,99351.44
2022-08-03T07:11:49.775Z,99349.00
2022-08-03T07:14:16.784Z,99345.66
2022-08-03T07:16:43.935Z,99352.66
2022-08-03T07:19:11.309Z,99361.41
2022-08-03T07:21:38.211Z,99359.69
2022-08-03T07:24:05.632Z,99340.53
2022-08-03T07:26:32.615Z,99353.34
2022-08-03T07:29:01.867Z,99355.59
2022-08-03T07:31:28.990Z,99348.69
2022-08-03T07:34:01.683Z,99338.19
2022-08-03T07:36:28.767Z,99357.38
2022-08-03T07:38:55.715Z,99361.63
2022-08-03T07:41:22.640Z,99354.78
2022-08-03T07:43:49.698Z,99358.81
2022-08-03T07:46:16.853Z,99357.47
2022-08-03T07:48:46.661Z,99352.72
2022-08-03T07:51:13.553Z,99359.16
2022-08-03T07:53:47.123Z,99346.34
2022-08-03T07:56:14.473Z,99355.09
2022-08-03T07:58:41.635Z,99370.31
2022-08-03T08:01:08.937Z,99361.47
2022-08-03T08:03:52.175Z,99356.75
2022-08-03T08:06:21.258Z,99375.06
2022-08-03T08:08:48.453Z,99367.03
2022-08-03T08:11:15.875Z,99375.97
2022-08-03T08:13:42.941Z,99358.22
2022-08-03T08:16:10.025Z,99375.88
2022-08-03T08:18:37.183Z,99372.47
2022-08-03T08:21:04.461Z,99362.63
2022-08-03T08:23:42.746Z,99379.38
2022-08-03T08:26:11.853Z,99361.34
2022-08-03T08:28:39.354Z,99374.72
2022-08-03T08:31:07.090Z,99370.44
2022-08-03T08:34:03.256Z,99373.97
2022-08-03T08:36:22.512Z,99370.59
2022-08-03T08:38:49.777Z,99355.47
2022-08-03T08:41:17.479Z,99376.69
2022-08-03T08:43:44.572Z,99364.84
2022-08-03T08:46:23.092Z,99366.16
2022-08-03T08:48:51.940Z,99366.47
2022-08-03T08:51:21.380Z,99363.78
2022-08-03T08:53:52.743Z,99365.59
2022-08-03T08:56:27.286Z,99365.09
2022-08-03T08:58:59.328Z,99356.28
2022-08-03T09:01:29.599Z,99355.75
2022-08-03T09:03:56.725Z,99349.94
2022-08-03T09:06:24.223Z,99351.50
2022-08-03T09:08:51.554Z,99360.66
2022-08-03T09:11:54.410Z,99351.16
2022-08-03T09:14:39.241Z,99357.50
2022-08-03T09:17:03.316Z,99349.53
2022-08-03T09:19:32.061Z,99343.06
2022-08-03T09:22:18.684Z,99354.66
2022-08-03T09:25:21.655Z,99345.69
2022-08-03T09:27:44.591Z,99344.50
2022-08-03T09:30:33.470Z,99332.47
2022-08-03T09:33:08.302Z,99340.84
2022-08-03T09:35:57.356Z,99340.97
2022-08-03T09:38:28.291Z,99329.66
2022-08-03T09:40:59.900Z,99319.84
2022-08-03T09:43:28.605Z,99335.09
2022-08-03T09:46:05.623Z,99327.31
2022-08-03T09:48:35.229Z,99328.41
2022-08-03T09:51:12.847Z,99333.34
2022-08-03T09:53:57.077Z,99321.94
2022-08-03T09:56:47.633Z,99320.03
2022-08-03T09:59:24.610Z,99305.53
2022-08-03T10:01:53.783Z,99325.75
2022-08-03T10:04:22.351Z,99317.66
2022-08-03T10:07:09.840Z,99314.59
2022-08-03T10:09:38.052Z,99316.31
2022-08-03T10:12:09.878Z,99301.69
2022-08-03T10:14:42.127Z,99313.47
2022-08-03T10:17:10.118Z,99310.91
2022-08-03T10:19:38.189Z,99297.31
2022-08-03T10:22:12.812Z,99289.34
2022-08-03T10:24:42.242Z,99296.03
2022-08-03T10:27:11.921Z,99292.19
2022-08-03T10:29:40.132Z,99291.63
2022-08-03T10:32:16.582Z,99297.00
2022-08-03T10:34:45.821Z,99295.88
2022-08-03T10:37:16.440Z,99293.63
2022-08-03T10:39:53.717Z,99297.72
2022-08-03T10:42:26.378Z,99287.88
2022-08-03T10:45:05.378Z,99287.50
2022-08-03T10:47:33.388Z,99287.38
2022-08-03T10:50:01.299Z,99281.53
2022-08-03T10:52:33.895Z,99290.16
2022-08-03T10:55:54.071Z,99285.94
2022-08-03T10:58:57.739Z,99275.16
2022-08-03T11:02:00.835Z,99285.69
2022-08-03T11:04:30.352Z,99277.84
2022-08-03T11:07:29.821Z,99284.03
2022-08-03T11:09:57.271Z,99269.63
2022-08-03T11:12:31.101Z,99269.81
2022-08-03T11:15:07.800Z,99271.91
2022-08-03T11:17:46.338Z,99265.34
2022-08-03T11:20:59.840Z,99264.72
2022-08-03T11:24:02.455Z,99237.47
2022-08-03T11:26:34.388Z,99253.94
2022-08-03T11:29:33.161Z,99248.19
2022-08-03T11:32:03.491Z,99244.25
2022-08-03T11:34:30.811Z,99222.78
2022-08-03T11:37:34.661Z,99239.88
2022-08-03T11:40:06.399Z,99235.97
2022-08-03T11:42:36.761Z,99232.97
2022-08-03T11:45:09.281Z,99215.63
2022-08-03T11:47:51.161Z,99206.03
2022-08-03T11:50:20.410Z,99204.94
2022-08-03T11:52:51.350Z,99208.16
2022-08-03T11:55:22.367Z,99199.09
2022-08-03T11:59:13.094Z,99221.94
2022-08-03T12:00:37.280Z,99224.50
2022-08-03T12:03:08.108Z,99223.47
2022-08-03T12:05:41.181Z,99198.22
2022-08-03T12:08:10.011Z,99213.09
2022-08-03T12:10:39.121Z,99218.94
2022-08-03T12:14:44.066Z,99193.84
2022-08-03T12:16:01.879Z,99202.13
2022-08-03T12:18:28.859Z,99208.66
2022-08-03T12:21:11.279Z,99207.09
2022-08-03T12:23:39.259Z,99205.63
2022-08-03T12:26:10.653Z,99206.94
2022-08-03T12:28:49.795Z,99205.72
2022-08-03T12:31:17.465Z,99189.63
2022-08-03T12:34:03.316Z,99191.84
2022-08-03T12:36:32.465Z,99190.25
2022-08-03T12:39:09.676Z,99182.78
2022-08-03T12:41:41.036Z,99191.19
2022-08-03T12:44:09.996Z,99192.38
2022-08-03T12:46:47.584Z,99191.44
2022-08-03T12:49:17.573Z,99193.81
2022-08-03T12:51:44.497Z,99195.09
2022-08-03T12:54:25.246Z,99179.09
2022-08-03T12:57:06.961Z,99183.22
2022-08-03T12:59:45.164Z,99176.00
2022-08-03T13:02:23.703Z,99176.25
2022-08-03T13:04:52.518Z,99179.75
2022-08-03T13:07:21.193Z,99166.28
2022-08-03T13:09:53.616Z,99170.09
2022-08-03T13:12:29.204Z,99172.28
2022-08-03T13:14:58.875Z,99173.00
2022-08-03T13:17:27.235Z,99158.91
2022-08-03T13:19:55.065Z,99139.34
2022-08-03T13:22:23.556Z,99163.75
2022-08-03T13:24:53.357Z,99160.53
2022-08-03T13:28:00.949Z,99159.50
2022-08-03T13:30:09.119Z,99157.03
2022-08-03T13:32:36.505Z,99154.69
2022-08-03T13:35:04.255Z,99157.84
2022-08-03T13:37:32.634Z,99147.22
2022-08-03T13:40:02.581Z,99134.78
2022-08-03T13:42:32.859Z,99130.34
2022-08-03T13:45:01.070Z,99142.34
2022-08-03T13:47:28.698Z,99128.00
2022-08-03T13:50:01.170Z,99128.91
2022-08-03T13:52:34.745Z,99134.53
2022-08-03T13:55:04.404Z,99132.69
2022-08-03T13:58:03.732Z,99107.84
2022-08-03T14:00:26.596Z,99125.63
2022-08-03T14:03:02.881Z,99119.84
2022-08-03T14:05:32.426Z,99116.03
2022-08-03T14:08:04.904Z,99117.06
2022-08-03T14:10:37.485Z,99113.38
2022-08-03T14:13:05.626Z,99121.28
2022-08-03T14:15:37.657Z,99120.31
2022-08-03T14:18:07.331Z,99104.44
2022-08-03T14:20:49.968Z,99116.06
2022-08-03T14:23:28.194Z,99118.63
2022-08-03T14:25:55.236Z,99128.84
2022-08-03T14:28:23.579Z,99126.66
2022-08-03T14:30:56.178Z,99097.22
2022-08-03T14:33:25.228Z,99094.50
2022-08-03T14:35:52.839Z,99106.25
2022-08-03T14:38:20.565Z,99107.41
2022-08-03T14:40:49.558Z,99100.00
2022-08-03T14:43:23.375Z,99110.34
2022-08-03T14:45:54.455Z,99108.72
2022-08-03T14:50:24.524Z,99097.19
2022-08-03T14:51:13.001Z,99097.00
2022-08-03T14:53:42.835Z,99120.78
2022-08-03T14:56:11.096Z,99110.56
2022-08-03T14:58:39.440Z,99099.56
2022-08-03T15:02:01.823Z,99090.22
2022-08-03T15:04:05.795Z,99107.28
2022-08-03T15:06:34.525Z,99089.78
2022-08-03T15:11:49.515Z,99112.38
2022-08-03T15:14:28.346Z,99096.91
2022-08-03T15:17:01.149Z,99089.31
2022-08-03T15:20:01.177Z,99110.88
2022-08-03T15:22:19.051Z,99091.94
2022-08-03T15:24:48.106Z,99099.28
2022-08-03T15:27:17.818Z,99105.09
2022-08-03T15:30:08.876Z,99112.16
2022-08-03T15:32:32.077Z,99083.78
2022-08-03T15:34:59.033Z,99101.59
2022-08-03T15:37:26.160Z,99101.00
2022-08-03T15:39:58.869Z,99102.00
2022-08-03T15:42:29.343Z,99099.69
2022-08-03T15:44:58.642Z,99097.28
2022-08-03T15:47:25.980Z,99084.22
2022-08-03T15:49:54.213Z,99086.44
2022-08-03T15:52:21.505Z,99067.09
2022-08-03T15:54:48.512Z,99073.50
2022-08-03T15:57:15.672Z,99060.25
2022-08-03T15:59:42.802Z,99072.28
2022-08-03T16:02:10.503Z,99088.41
2022-08-03T16:04:37.582Z,99064.28
2022-08-03T16:07:05.122Z,99079.75
2022-08-03T16:09:43.180Z,99083.41
2022-08-03T16:12:15.894Z,99071.34
2022-08-03T16:14:52.293Z,99088.06
2022-08-03T16:17:20.278Z,99088.53
2022-08-03T16:19:47.424Z,99081.81
2022-08-03T16:22:14.672Z,99089.13
2022-08-03T16:24:42.062Z,99091.94
2022-08-03T16:27:17.697Z,99084.72
2022-08-03T16:29:59.182Z,99072.72
2022-08-03T16:32:26.352Z,99063.13
2022-08-03T16:34:54.222Z,99082.16
2022-08-03T16:40:17.676Z,99067.50
2022-08-03T16:42:47.425Z,99081.50
2022-08-03T16:45:14.647Z,99072.13
2022-08-03T16:47:41.834Z,99090.25
2022-08-03T16:50:17.223Z,99079.00
2022-08-03T16:52:47.094Z,99078.22
2022-08-03T16:55:16.096Z,99092.16
2022-08-03T16:58:04.111Z,99080.72
2022-08-03T17:00:41.517Z,99094.25
2022-08-03T17:03:25.535Z,99096.63
2022-08-03T17:05:53.196Z,99080.13
2022-08-03T17:08:27.463Z,99074.47
2022-08-03T17:10:56.287Z,99099.94
2022-08-03T17:13:27.828Z,99087.91
2022-08-03T17:16:10.817Z,99084.38
2022-08-03T17:18:57.152Z,99099.38
2022-08-03T17:21:29.441Z,99105.28
2022-08-03T17:24:14.772Z,99088.72
2022-08-03T17:26:49.995Z,99109.16
2022-08-03T17:29:25.173Z,99097.59
2022-08-03T17:31:53.349Z,99102.66
2022-08-03T17:34:26.492Z,99088.72
2022-08-03T17:37:27.160Z,99092.59
2022-08-03T17:39:59.606Z,99083.56
2022-08-03T17:42:30.242Z,99075.88
2022-08-03T17:45:02.162Z,99080.31
2022-08-03T17:47:42.421Z,99095.03
2022-08-03T17:50:25.050Z,99110.38
2022-08-03T17:53:06.745Z,99091.50
2022-08-03T17:55:56.043Z,99099.19
2022-08-03T17:58:55.832Z,99105.06
2022-08-03T18:02:00.275Z,99099.00
2022-08-03T18:04:40.627Z,99092.94
2022-08-03T18:07:13.102Z,99112.41
2022-08-03T18:10:05.317Z,99111.06
2022-08-03T18:12:51.895Z,99101.56
2022-08-03T18:15:32.064Z,99108.28
2022-08-03T18:18:10.527Z,99100.66
2022-08-03T18:20:41.982Z,99113.69
2022-08-03T18:23:25.230Z,99126.56
2022-08-03T18:26:00.881Z,99129.50
2022-08-03T18:28:31.807Z,99139.34
2022-08-03T18:31:06.283Z,99122.53
2022-08-03T18:34:16.705Z,99132.00
2022-08-03T18:36:32.422Z,99139.28
2022-08-03T18:39:03.241Z,99141.88
2022-08-03T18:41:34.550Z,99145.03
2022-08-03T18:44:08.323Z,99146.34
2022-08-03T18:47:16.770Z,99155.34
2022-08-03T18:50:20.924Z,99155.81
2022-08-03T18:53:16.305Z,99152.56
2022-08-03T18:56:03.553Z,99157.19
2022-08-03T18:58:48.614Z,99164.97
2022-08-03T19:04:32.733Z,99159.91
2022-08-03T19:07:11.070Z,99167.34
2022-08-03T19:09:59.726Z,99160.91
2022-08-03T19:12:58.343Z,99165.56
2022-08-03T19:15:41.342Z,99177.03
2022-08-03T19:18:18.548Z,99176.41
2022-08-03T19:20:46.700Z,99182.03
2022-08-03T19:23:14.883Z,99160.38
2022-08-03T19:25:42.854Z,99185.63
2022-08-03T19:28:09.999Z,99173.84
2022-08-03T19:30:53.248Z,99177.38
2022-08-03T19:33:21.003Z,99196.03
2022-08-03T19:35:55.322Z,99183.31
2022-08-03T19:38:28.567Z,99173.06
2022-08-03T19:41:02.976Z,99186.91
2022-08-03T19:43:52.730Z,99165.88
2022-08-03T19:46:31.639Z,99172.69
2022-08-03T19:49:10.555Z,99191.06
2022-08-03T19:52:01.163Z,99183.53
2022-08-03T19:54:35.264Z,99203.56
2022-08-03T19:57:03.485Z,99185.50
2022-08-03T19:59:36.807Z,99194.09
2022-08-03T20:02:25.638Z,99185.22
2022-08-03T20:04:54.914Z,99194.78
2022-08-03T20:07:23.715Z,99180.22
2022-08-03T20:09:54.393Z,99176.78
2022-08-03T20:12:26.616Z,99181.16
2022-08-03T20:14:55.705Z,99201.13
2022-08-03T20:17:23.428Z,99203.78
2022-08-03T20:20:10.196Z,99198.59
2022-08-03T20:22:47.506Z,99199.56
2022-08-03T20:25:21.103Z,99194.28
2022-08-03T20:28:07.901Z,99183.06
2022-08-03T20:30:44.206Z,99175.91
2022-08-03T20:33:11.594Z,99197.19
2022-08-03T20:35:45.990Z,99192.97
2022-08-03T20:38:18.470Z,99207.00
2022-08-03T20:41:09.135Z,99192.88
2022-08-03T20:43:36.214Z,99196.06
2022-08-03T20:46:31.889Z,99191.44
2022-08-03T20:48:51.474Z,99173.97
2022-08-03T20:51:50.316Z,99199.06
2022-08-03T20:54:23.061Z,99179.00
2022-08-03T20:57:04.370Z,99179.66
2022-08-03T20:59:50.407Z,99175.16
2022-08-03T21:02:28.798Z,99205.63
2022-08-03T21:05:03.726Z,99210.97
2022-08-03T21:08:05.746Z,99205.72
2022-08-03T21:10:30.604Z,99201.91
2022-08-03T21:13:10.495Z,99171.78
2022-08-03T21:16:02.934Z,99205.13
2022-08-03T21:18:49.286Z,99221.91
2022-08-03T21:21:18.476Z,99220.25
2022-08-03T21:23:50.162Z,99217.88
2022-08-03T21:26:19.814Z,99214.50
2022-08-03T21:28:48.981Z,99225.22
2022-08-03T21:31:24.803Z,99222.72
2022-08-03T21:33:59.868Z,99228.34
2022-08-03T21:36:29.335Z,99223.34
2022-08-03T21:38:57.936Z,99229.47
2022-08-03T21:41:30.841Z,99226.13
2022-08-03T21:43:58.714Z,99228.78
2022-08-03T21:46:29.914Z,99228.81
2022-08-03T21:50:04.175Z,99235.97
2022-08-03T21:51:50.685Z,99232.69
2022-08-03T21:54:20.791Z,99237.09
2022-08-03T21:56:48.892Z,99235.50
2022-08-03T21:59:20.495Z,99236.47
2022-08-03T22:01:51.353Z,99238.28
2022-08-03T22:04:55.321Z,99235.78
2022-08-03T22:07:09.675Z,99242.97
2022-08-03T22:09:37.209Z,99238.72
2022-08-03T22:12:04.670Z,99250.91
2022-08-03T22:14:34.493Z,99251.72
2022-08-03T22:17:03.560Z,99246.72
2022-08-03T22:19:34.277Z,99243.19
2022-08-03T22:22:06.203Z,99249.63
2022-08-03T22:24:36.077Z,99247.00
2022-08-03T22:27:22.713Z,99250.66
2022-08-03T22:29:51.894Z,99249.03
2022-08-03T22:32:20.074Z,99247.00
2022-08-03T22:34:49.626Z,99240.94
2022-08-03T22:37:19.000Z,99242.44
2022-08-03T22:39:46.649Z,99253.06
2022-08-03T22:42:14.018Z,99237.25
2022-08-03T22:44:41.204Z,99247.03
2022-08-03T22:47:09.874Z,99242.94
2022-08-03T22:49:38.044Z,99238.03
2022-08-03T22:52:05.973Z,99237.09
2022-08-03T22:54:33.924Z,99238.09
2022-08-03T22:57:01.287Z,99244.63
2022-08-03T22:59:39.225Z,99240.78
2022-08-03T23:02:21.085Z,99232.84
2022-08-03T23:04:56.987Z,99236.88
2022-08-03T23:07:30.433Z,99238.69
2022-08-03T23:10:02.964Z,99226.41
2022-08-03T23:12:34.525Z,99236.06
2022-08-03T23:15:04.545Z,99233.66
2022-08-03T23:17:32.933Z,99232.84
2022-08-03T23:20:06.856Z,99235.38
2022-08-03T23:22:42.919Z,99237.22
2022-08-03T23:25:10.984Z,99236.53
2022-08-03T23:27:42.830Z,99231.97
2022-08-03T23:30:11.370Z,99237.41
2022-08-03T23:32:42.905Z,99221.53
2022-08-03T23:36:27.630Z,99223.34
2022-08-03T23:38:22.980Z,99227.69
2022-08-03T23:40:51.469Z,99232.09
2022-08-03T23:43:50.909Z,99219.97
2022-08-03T23:46:07.897Z,99227.34
2022-08-03T23:48:35.154Z,99219.69
2022-08-03T23:51:10.595Z,99221.25
2022-08-03T23:53:57.678Z,99219.53
2022-08-03T23:56:53.108Z,99224.19
2022-08-03T23:59:44.166Z,99212.97
